Oklahoma City, OK (73122)

11:47 AM CDT on October 02, 2014 (GMT -0500)
USA Car Wash | Change Station
CLOSE
Current Station
Personal Weather Station
Location: Warr Acres, OK
Elevation: 1250 ft
Nearby Weather Stations

Elev 1250 ft 35.55 °N, 97.61 °W | Updated 13 minutes ago

Mostly Cloudy
Mostly Cloudy
71.6 °F
Feels Like 74 °F
N
7.0
Wind Variable Wind from NNW

Today
High -- | Low -- °F
--% Chance of Precip.
Yesterday
High -- | Low -- °F
Precip. -- in
7:26 AM 7:12 PM
First Quarter, 60% visible
Pressure 29.76 in
Visibility 9.0 miles
Clouds Scattered Clouds 3200 ft
Mostly Cloudy 3800 ft
Heat Index 74 °F
Dew Point 62 °F
Humidity 71%
Rainfall 0.00 in
Snow Depth Not available.
UV 3 out of 12
Pollen 8.00 out of 12
Ozone Good
PM2.5 Good
Flu Activity Not available.
METAR KPWA 021553Z 32016G23KT 9SM SCT032 BKN038 21/15 A2980 RMK AO2 WSHFT 1504 SLP076 T02110150

More Conditions Fewer Conditions

Pressure 29.76 in
Visibility 9.0 miles
Clouds Scattered Clouds 3200 ft
Mostly Cloudy 3800 ft
Heat Index 74 °F
Dew Point 62 °F
Humidity 71%
Rainfall 0.00 in
Snow Depth Not available.
UV 3 out of 12
Pollen 8.00 out of 12
Ozone Good
PM2.5 Good
Flu Activity Not available.
METAR KPWA 021553Z 32016G23KT 9SM SCT032 BKN038 21/15 A2980 RMK AO2 WSHFT 1504 SLP076 T02110150

More Conditions Fewer Conditions

10-Day Weather Forecast

Almanac

Astronomy

Oct. 02, 2014 Rise Set
Actual Time 7:26 AM CDT 7:12 PM CDT
Civil Twilight 7:00 AM CDT 7:38 PM CDT
Nautical Twilight 6:31 AM CDT 8:07 PM CDT
Astronomical Twilight 6:01 AM CDT 8:37 PM CDT
Moon 3:09 PM CDT 12:55 AM CDT
Length of Visible Light 12h 37m
Length of Day
11h 46m
Tomorrow will be 2m 12s shorter.
First Quarter, 60% of the Moon is Illuminated
Today
First Quarter
Oct 8
Full
Oct 15
Last Quarter
Oct 23
New
Oct 30
First Quarter

Today's Extremes

State Highs State Lows

Community

WunderPhotos

Upload Photos

1,758,294 photos uploaded!

WunderBlogs® & News

Nearby

Air Quality

  Air Quality AQ Index Pollutant
Yesterday Moderate
PM2.5
Yesterday Good
OZONE
Current Good
PM2.5
Current Good
OZONE
Thursday Good
OZONE
Thursday Good
PM2.5
Friday Good
OZONE
Friday Good
PM2.5
Saturday Good
OZONE
Saturday Good
PM2.5
Sunday Good
OZONE
Sunday Good
PM2.5
Monday Good
OZONE
Monday Good
PM2.5
Tuesday Good
OZONE
Tuesday Good
PM2.5

Snow Depth

Station Depth Elevation
No new snow has been reported.

Earthquake Activity

City Distance Mag. Time & Date
Perry, Oklahoma 49 miles 2.6 8:20 PM CDT
2014-10-01
Guthrie, Oklahoma 25 miles 3.0 5:15 PM CDT
2014-10-01
Perry, Oklahoma 65 miles 2.8 4:17 PM CDT
2014-10-01
Medford, Oklahoma 88 miles 3.6 1:18 PM CDT
2014-10-01
Minimum magnitude displayed is 2.5.

Coastal Water Temperatures

Place Temperature
No Stations Reporting

Nearby Weather Stations